sensor_id;sensor_type;location;lat;lon;timestamp;P1;durP1;ratioP1;P2;durP2;ratioP2
15799;SDS011;8002;51.196;7.010;2023-07-30T00:01:35;3.55;;;2.83;;
15799;SDS011;8002;51.196;7.010;2023-07-30T00:04:02;4.60;;;3.42;;
15799;SDS011;8002;51.196;7.010;2023-07-30T00:06:28;4.22;;;3.33;;
15799;SDS011;8002;51.196;7.010;2023-07-30T00:08:55;3.28;;;3.05;;
15799;SDS011;8002;51.196;7.010;2023-07-30T00:11:21;4.03;;;3.50;;
15799;SDS011;8002;51.196;7.010;2023-07-30T00:13:47;4.32;;;3.45;;
15799;SDS011;8002;51.196;7.010;2023-07-30T00:16:15;4.35;;;3.33;;
15799;SDS011;8002;51.196;7.010;2023-07-30T00:18:41;3.47;;;3.17;;
15799;SDS011;8002;51.196;7.010;2023-07-30T00:21:08;3.70;;;2.83;;
15799;SDS011;8002;51.196;7.010;2023-07-30T00:23:34;3.80;;;3.17;;
15799;SDS011;8002;51.196;7.010;2023-07-30T00:26:00;4.80;;;2.92;;
15799;SDS011;8002;51.196;7.010;2023-07-30T00:28:27;4.10;;;3.08;;
15799;SDS011;8002;51.196;7.010;2023-07-30T00:30:53;5.20;;;3.10;;
15799;SDS011;8002;51.196;7.010;2023-07-30T00:33:21;4.13;;;3.10;;
15799;SDS011;8002;51.196;7.010;2023-07-30T00:35:50;3.22;;;2.90;;
15799;SDS011;8002;51.196;7.010;2023-07-30T00:38:16;3.28;;;2.97;;
15799;SDS011;8002;51.196;7.010;2023-07-30T00:40:43;3.20;;;2.58;;
15799;SDS011;8002;51.196;7.010;2023-07-30T00:43:09;4.70;;;3.05;;
15799;SDS011;8002;51.196;7.010;2023-07-30T00:45:36;3.78;;;3.00;;
15799;SDS011;8002;51.196;7.010;2023-07-30T00:48:04;4.30;;;3.38;;
15799;SDS011;8002;51.196;7.010;2023-07-30T00:50:32;3.30;;;3.00;;
15799;SDS011;8002;51.196;7.010;2023-07-30T00:52:59;3.38;;;3.08;;
15799;SDS011;8002;51.196;7.010;2023-07-30T00:55:25;2.97;;;2.70;;
15799;SDS011;8002;51.196;7.010;2023-07-30T00:57:51;5.55;;;3.08;;
15799;SDS011;8002;51.196;7.010;2023-07-30T01:00:18;3.03;;;2.72;;
15799;SDS011;8002;51.196;7.010;2023-07-30T01:02:44;4.50;;;2.80;;
15799;SDS011;8002;51.196;7.010;2023-07-30T01:05:10;3.05;;;2.75;;
15799;SDS011;8002;51.196;7.010;2023-07-30T01:07:38;3.30;;;2.63;;
15799;SDS011;8002;51.196;7.010;2023-07-30T01:10:05;5.47;;;3.22;;
15799;SDS011;8002;51.196;7.010;2023-07-30T01:12:32;3.47;;;3.13;;
15799;SDS011;8002;51.196;7.010;2023-07-30T01:14:59;3.60;;;3.30;;
15799;SDS011;8002;51.196;7.010;2023-07-30T01:17:26;3.38;;;3.08;;
15799;SDS011;8002;51.196;7.010;2023-07-30T01:19:52;4.30;;;2.83;;
15799;SDS011;8002;51.196;7.010;2023-07-30T01:22:21;3.00;;;2.80;;
15799;SDS011;8002;51.196;7.010;2023-07-30T01:24:47;4.45;;;2.83;;
15799;SDS011;8002;51.196;7.010;2023-07-30T01:27:14;4.05;;;2.58;;
15799;SDS011;8002;51.196;7.010;2023-07-30T01:29:43;3.25;;;2.42;;
15799;SDS011;8002;51.196;7.010;2023-07-30T01:32:11;4.00;;;2.58;;
15799;SDS011;8002;51.196;7.010;2023-07-30T01:34:39;3.22;;;2.67;;
15799;SDS011;8002;51.196;7.010;2023-07-30T01:37:07;4.22;;;2.72;;
15799;SDS011;8002;51.196;7.010;2023-07-30T01:39:36;3.22;;;2.35;;
15799;SDS011;8002;51.196;7.010;2023-07-30T01:42:03;3.92;;;3.08;;
15799;SDS011;8002;51.196;7.010;2023-07-30T01:44:30;3.80;;;2.95;;
15799;SDS011;8002;51.196;7.010;2023-07-30T01:46:56;3.30;;;2.85;;
15799;SDS011;8002;51.196;7.010;2023-07-30T01:49:22;5.20;;;3.10;;
15799;SDS011;8002;51.196;7.010;2023-07-30T01:51:48;6.70;;;2.70;;
15799;SDS011;8002;51.196;7.010;2023-07-30T01:54:15;5.78;;;3.25;;
15799;SDS011;8002;51.196;7.010;2023-07-30T01:56:43;3.35;;;2.80;;
15799;SDS011;8002;51.196;7.010;2023-07-30T01:59:09;5.57;;;3.15;;
15799;SDS011;8002;51.196;7.010;2023-07-30T02:01:35;3.15;;;2.60;;
15799;SDS011;8002;51.196;7.010;2023-07-30T02:04:02;5.07;;;2.63;;
15799;SDS011;8002;51.196;7.010;2023-07-30T02:06:28;4.53;;;2.70;;
15799;SDS011;8002;51.196;7.010;2023-07-30T02:08:54;5.35;;;3.30;;
15799;SDS011;8002;51.196;7.010;2023-07-30T02:11:21;5.03;;;2.70;;
15799;SDS011;8002;51.196;7.010;2023-07-30T02:13:48;4.35;;;2.63;;
15799;SDS011;8002;51.196;7.010;2023-07-30T02:16:15;5.72;;;2.85;;
15799;SDS011;8002;51.196;7.010;2023-07-30T02:18:41;4.22;;;2.67;;
15799;SDS011;8002;51.196;7.010;2023-07-30T02:21:07;6.13;;;3.00;;
15799;SDS011;8002;51.196;7.010;2023-07-30T02:23:34;5.93;;;3.25;;
15799;SDS011;8002;51.196;7.010;2023-07-30T02:26:00;4.60;;;2.88;;
15799;SDS011;8002;51.196;7.010;2023-07-30T02:28:26;3.17;;;2.65;;
15799;SDS011;8002;51.196;7.010;2023-07-30T02:30:54;4.20;;;2.50;;
15799;SDS011;8002;51.196;7.010;2023-07-30T02:33:20;3.42;;;2.80;;
15799;SDS011;8002;51.196;7.010;2023-07-30T02:35:47;2.95;;;2.50;;
15799;SDS011;8002;51.196;7.010;2023-07-30T02:38:13;4.40;;;2.58;;
15799;SDS011;8002;51.196;7.010;2023-07-30T02:40:39;3.08;;;2.50;;
15799;SDS011;8002;51.196;7.010;2023-07-30T02:43:06;2.97;;;2.20;;
15799;SDS011;8002;51.196;7.010;2023-07-30T02:45:32;5.28;;;3.30;;
15799;SDS011;8002;51.196;7.010;2023-07-30T02:48:00;4.50;;;3.20;;
15799;SDS011;8002;51.196;7.010;2023-07-30T02:50:26;4.65;;;2.78;;
15799;SDS011;8002;51.196;7.010;2023-07-30T02:52:52;4.63;;;2.70;;
15799;SDS011;8002;51.196;7.010;2023-07-30T02:55:19;4.30;;;2.63;;
15799;SDS011;8002;51.196;7.010;2023-07-30T02:57:45;3.05;;;2.60;;
15799;SDS011;8002;51.196;7.010;2023-07-30T03:00:11;4.10;;;2.78;;
15799;SDS011;8002;51.196;7.010;2023-07-30T03:02:39;3.58;;;2.63;;
15799;SDS011;8002;51.196;7.010;2023-07-30T03:05:07;4.32;;;2.47;;
15799;SDS011;8002;51.196;7.010;2023-07-30T03:07:33;3.28;;;2.97;;
15799;SDS011;8002;51.196;7.010;2023-07-30T03:10:00;3.55;;;2.40;;
15799;SDS011;8002;51.196;7.010;2023-07-30T03:12:26;4.18;;;2.53;;
15799;SDS011;8002;51.196;7.010;2023-07-30T03:14:52;5.93;;;3.08;;
15799;SDS011;8002;51.196;7.010;2023-07-30T03:17:19;4.05;;;2.80;;
15799;SDS011;8002;51.196;7.010;2023-07-30T03:19:45;3.25;;;2.85;;
15799;SDS011;8002;51.196;7.010;2023-07-30T03:22:13;2.88;;;2.55;;
15799;SDS011;8002;51.196;7.010;2023-07-30T03:24:40;4.22;;;3.00;;
15799;SDS011;8002;51.196;7.010;2023-07-30T03:27:06;5.25;;;2.55;;
15799;SDS011;8002;51.196;7.010;2023-07-30T03:29:32;4.32;;;2.60;;
15799;SDS011;8002;51.196;7.010;2023-07-30T03:31:59;3.28;;;2.97;;
15799;SDS011;8002;51.196;7.010;2023-07-30T03:34:25;5.80;;;2.92;;
15799;SDS011;8002;51.196;7.010;2023-07-30T03:36:51;5.57;;;2.97;;
15799;SDS011;8002;51.196;7.010;2023-07-30T03:39:19;5.10;;;2.88;;
15799;SDS011;8002;51.196;7.010;2023-07-30T03:41:45;5.30;;;2.83;;
15799;SDS011;8002;51.196;7.010;2023-07-30T03:44:12;5.30;;;3.00;;
15799;SDS011;8002;51.196;7.010;2023-07-30T03:46:38;2.95;;;2.42;;
15799;SDS011;8002;51.196;7.010;2023-07-30T03:49:04;5.82;;;2.55;;
15799;SDS011;8002;51.196;7.010;2023-07-30T03:51:31;3.60;;;2.95;;
15799;SDS011;8002;51.196;7.010;2023-07-30T03:53:57;4.25;;;2.28;;
15799;SDS011;8002;51.196;7.010;2023-07-30T03:56:25;3.35;;;2.40;;
15799;SDS011;8002;51.196;7.010;2023-07-30T03:58:51;3.30;;;2.42;;
15799;SDS011;8002;51.196;7.010;2023-07-30T04:01:18;4.57;;;2.50;;
15799;SDS011;8002;51.196;7.010;2023-07-30T04:03:44;4.38;;;2.78;;
15799;SDS011;8002;51.196;7.010;2023-07-30T04:06:10;6.13;;;2.53;;
15799;SDS011;8002;51.196;7.010;2023-07-30T04:08:37;3.50;;;2.58;;
15799;SDS011;8002;51.196;7.010;2023-07-30T04:11:03;4.15;;;2.30;;
15799;SDS011;8002;51.196;7.010;2023-07-30T04:13:31;4.47;;;2.78;;
15799;SDS011;8002;51.196;7.010;2023-07-30T04:15:58;4.22;;;2.42;;
15799;SDS011;8002;51.196;7.010;2023-07-30T04:18:24;4.18;;;2.90;;
15799;SDS011;8002;51.196;7.010;2023-07-30T04:20:50;5.72;;;2.70;;
15799;SDS011;8002;51.196;7.010;2023-07-30T04:23:16;5.05;;;2.30;;
15799;SDS011;8002;51.196;7.010;2023-07-30T04:25:43;4.32;;;2.30;;
15799;SDS011;8002;51.196;7.010;2023-07-30T04:28:09;3.75;;;2.50;;
15799;SDS011;8002;51.196;7.010;2023-07-30T04:30:37;5.35;;;2.92;;
15799;SDS011;8002;51.196;7.010;2023-07-30T04:33:03;4.72;;;2.72;;
15799;SDS011;8002;51.196;7.010;2023-07-30T04:35:30;3.80;;;2.38;;
15799;SDS011;8002;51.196;7.010;2023-07-30T04:37:56;3.58;;;2.58;;
15799;SDS011;8002;51.196;7.010;2023-07-30T04:40:22;8.25;;;2.70;;
15799;SDS011;8002;51.196;7.010;2023-07-30T04:42:49;6.43;;;2.92;;
15799;SDS011;8002;51.196;7.010;2023-07-30T04:45:15;4.40;;;2.47;;
15799;SDS011;8002;51.196;7.010;2023-07-30T04:47:43;7.03;;;2.70;;
15799;SDS011;8002;51.196;7.010;2023-07-30T04:50:09;3.55;;;2.33;;
15799;SDS011;8002;51.196;7.010;2023-07-30T04:52:36;4.63;;;2.67;;
15799;SDS011;8002;51.196;7.010;2023-07-30T04:55:02;5.90;;;2.65;;
15799;SDS011;8002;51.196;7.010;2023-07-30T04:57:28;6.53;;;2.08;;
15799;SDS011;8002;51.196;7.010;2023-07-30T04:59:55;4.05;;;2.13;;
15799;SDS011;8002;51.196;7.010;2023-07-30T05:02:21;5.40;;;2.28;;
15799;SDS011;8002;51.196;7.010;2023-07-30T05:04:49;4.32;;;2.45;;
15799;SDS011;8002;51.196;7.010;2023-07-30T05:07:15;5.07;;;2.22;;
15799;SDS011;8002;51.196;7.010;2023-07-30T05:09:42;2.75;;;1.50;;
15799;SDS011;8002;51.196;7.010;2023-07-30T05:12:08;2.70;;;2.22;;
15799;SDS011;8002;51.196;7.010;2023-07-30T05:14:34;3.15;;;1.77;;
15799;SDS011;8002;51.196;7.010;2023-07-30T05:17:00;3.70;;;1.67;;
15799;SDS011;8002;51.196;7.010;2023-07-30T05:19:28;2.60;;;1.98;;
15799;SDS011;8002;51.196;7.010;2023-07-30T05:21:56;3.60;;;1.85;;
15799;SDS011;8002;51.196;7.010;2023-07-30T05:24:22;3.25;;;2.17;;
15799;SDS011;8002;51.196;7.010;2023-07-30T05:26:48;4.43;;;1.80;;
15799;SDS011;8002;51.196;7.010;2023-07-30T05:29:15;3.83;;;2.00;;
15799;SDS011;8002;51.196;7.010;2023-07-30T05:31:41;4.32;;;1.92;;
15799;SDS011;8002;51.196;7.010;2023-07-30T05:34:07;7.20;;;2.03;;
15799;SDS011;8002;51.196;7.010;2023-07-30T05:36:34;4.68;;;1.92;;
15799;SDS011;8002;51.196;7.010;2023-07-30T05:39:01;3.97;;;1.63;;
15799;SDS011;8002;51.196;7.010;2023-07-30T05:41:28;4.15;;;1.73;;
15799;SDS011;8002;51.196;7.010;2023-07-30T05:43:54;5.97;;;2.03;;
15799;SDS011;8002;51.196;7.010;2023-07-30T05:46:20;5.63;;;1.95;;
15799;SDS011;8002;51.196;7.010;2023-07-30T05:48:47;4.05;;;1.80;;
15799;SDS011;8002;51.196;7.010;2023-07-30T05:51:13;3.45;;;1.83;;
15799;SDS011;8002;51.196;7.010;2023-07-30T05:53:39;3.75;;;1.50;;
15799;SDS011;8002;51.196;7.010;2023-07-30T05:56:07;5.53;;;1.77;;
15799;SDS011;8002;51.196;7.010;2023-07-30T05:58:33;2.47;;;1.33;;
15799;SDS011;8002;51.196;7.010;2023-07-30T06:01:00;3.15;;;1.50;;
15799;SDS011;8002;51.196;7.010;2023-07-30T06:03:26;3.65;;;1.73;;
15799;SDS011;8002;51.196;7.010;2023-07-30T06:05:53;4.38;;;1.58;;
15799;SDS011;8002;51.196;7.010;2023-07-30T06:08:19;2.15;;;1.45;;
15799;SDS011;8002;51.196;7.010;2023-07-30T06:10:45;2.30;;;2.10;;
15799;SDS011;8002;51.196;7.010;2023-07-30T06:13:13;4.28;;;1.70;;
15799;SDS011;8002;51.196;7.010;2023-07-30T06:15:39;1.63;;;1.30;;
15799;SDS011;8002;51.196;7.010;2023-07-30T06:18:06;3.65;;;1.70;;
15799;SDS011;8002;51.196;7.010;2023-07-30T06:20:32;4.35;;;1.65;;
15799;SDS011;8002;51.196;7.010;2023-07-30T06:22:58;3.28;;;1.50;;
15799;SDS011;8002;51.196;7.010;2023-07-30T06:25:25;3.25;;;1.80;;
15799;SDS011;8002;51.196;7.010;2023-07-30T06:27:51;2.80;;;1.55;;
15799;SDS011;8002;51.196;7.010;2023-07-30T06:30:19;3.85;;;1.90;;
15799;SDS011;8002;51.196;7.010;2023-07-30T06:32:45;2.33;;;1.70;;
15799;SDS011;8002;51.196;7.010;2023-07-30T06:35:11;2.67;;;1.50;;
15799;SDS011;8002;51.196;7.010;2023-07-30T06:37:38;3.42;;;1.88;;
15799;SDS011;8002;51.196;7.010;2023-07-30T06:40:04;4.05;;;1.70;;
15799;SDS011;8002;51.196;7.010;2023-07-30T06:42:31;3.25;;;1.40;;
15799;SDS011;8002;51.196;7.010;2023-07-30T06:44:58;2.72;;;1.50;;
15799;SDS011;8002;51.196;7.010;2023-07-30T06:47:25;2.70;;;1.60;;
15799;SDS011;8002;51.196;7.010;2023-07-30T06:49:52;4.38;;;1.55;;
15799;SDS011;8002;51.196;7.010;2023-07-30T06:52:18;3.38;;;1.70;;
15799;SDS011;8002;51.196;7.010;2023-07-30T06:54:45;4.10;;;2.00;;
15799;SDS011;8002;51.196;7.010;2023-07-30T06:57:11;3.75;;;1.80;;
15799;SDS011;8002;51.196;7.010;2023-07-30T06:59:37;4.90;;;1.42;;
15799;SDS011;8002;51.196;7.010;2023-07-30T07:02:04;5.25;;;1.50;;
15799;SDS011;8002;51.196;7.010;2023-07-30T07:04:32;3.47;;;1.75;;
15799;SDS011;8002;51.196;7.010;2023-07-30T07:06:58;3.80;;;1.42;;
15799;SDS011;8002;51.196;7.010;2023-07-30T07:09:28;3.67;;;1.63;;
15799;SDS011;8002;51.196;7.010;2023-07-30T07:11:54;5.45;;;2.03;;
15799;SDS011;8002;51.196;7.010;2023-07-30T07:14:20;3.83;;;2.05;;
15799;SDS011;8002;51.196;7.010;2023-07-30T07:16:47;6.13;;;2.13;;
15799;SDS011;8002;51.196;7.010;2023-07-30T07:19:13;3.38;;;1.70;;
15799;SDS011;8002;51.196;7.010;2023-07-30T07:21:41;3.55;;;1.75;;
15799;SDS011;8002;51.196;7.010;2023-07-30T07:24:08;2.67;;;1.50;;
15799;SDS011;8002;51.196;7.010;2023-07-30T07:26:34;3.47;;;1.77;;
15799;SDS011;8002;51.196;7.010;2023-07-30T07:29:00;4.53;;;1.80;;
15799;SDS011;8002;51.196;7.010;2023-07-30T07:31:27;5.40;;;1.88;;
15799;SDS011;8002;51.196;7.010;2023-07-30T07:33:53;7.25;;;1.95;;
15799;SDS011;8002;51.196;7.010;2023-07-30T07:36:19;3.03;;;1.65;;
15799;SDS011;8002;51.196;7.010;2023-07-30T07:38:47;5.82;;;2.13;;
15799;SDS011;8002;51.196;7.010;2023-07-30T07:41:14;7.80;;;2.08;;
15799;SDS011;8002;51.196;7.010;2023-07-30T07:43:41;5.78;;;2.10;;
15799;SDS011;8002;51.196;7.010;2023-07-30T07:46:07;5.13;;;2.20;;
15799;SDS011;8002;51.196;7.010;2023-07-30T07:48:38;5.05;;;2.20;;
15799;SDS011;8002;51.196;7.010;2023-07-30T07:51:04;4.18;;;1.90;;
15799;SDS011;8002;51.196;7.010;2023-07-30T07:53:30;2.88;;;1.92;;
15799;SDS011;8002;51.196;7.010;2023-07-30T07:55:58;4.60;;;2.15;;
15799;SDS011;8002;51.196;7.010;2023-07-30T07:58:24;4.53;;;1.70;;
15799;SDS011;8002;51.196;7.010;2023-07-30T08:00:53;6.55;;;2.20;;
15799;SDS011;8002;51.196;7.010;2023-07-30T08:03:20;5.47;;;1.83;;
15799;SDS011;8002;51.196;7.010;2023-07-30T08:05:46;3.75;;;2.15;;
15799;SDS011;8002;51.196;7.010;2023-07-30T08:08:12;4.28;;;2.10;;
15799;SDS011;8002;51.196;7.010;2023-07-30T08:10:39;4.38;;;2.10;;
15799;SDS011;8002;51.196;7.010;2023-07-30T08:13:09;6.93;;;2.67;;
15799;SDS011;8002;51.196;7.010;2023-07-30T08:15:36;9.15;;;2.90;;
15799;SDS011;8002;51.196;7.010;2023-07-30T08:18:02;4.97;;;2.15;;
15799;SDS011;8002;51.196;7.010;2023-07-30T08:20:28;6.60;;;2.83;;
15799;SDS011;8002;51.196;7.010;2023-07-30T08:22:55;5.40;;;2.40;;
15799;SDS011;8002;51.196;7.010;2023-07-30T08:25:21;6.00;;;2.38;;
15799;SDS011;8002;51.196;7.010;2023-07-30T08:27:48;6.75;;;2.33;;
15799;SDS011;8002;51.196;7.010;2023-07-30T08:30:16;9.23;;;2.95;;
15799;SDS011;8002;51.196;7.010;2023-07-30T08:32:43;7.32;;;2.25;;
15799;SDS011;8002;51.196;7.010;2023-07-30T08:35:09;6.18;;;2.60;;
15799;SDS011;8002;51.196;7.010;2023-07-30T08:37:35;4.47;;;2.13;;
15799;SDS011;8002;51.196;7.010;2023-07-30T08:40:02;7.43;;;2.08;;
15799;SDS011;8002;51.196;7.010;2023-07-30T08:42:29;7.55;;;2.03;;
15799;SDS011;8002;51.196;7.010;2023-07-30T08:44:56;6.03;;;2.60;;
15799;SDS011;8002;51.196;7.010;2023-07-30T08:47:24;10.50;;;2.63;;
15799;SDS011;8002;51.196;7.010;2023-07-30T08:49:51;5.15;;;2.25;;
15799;SDS011;8002;51.196;7.010;2023-07-30T08:52:17;4.25;;;2.30;;
15799;SDS011;8002;51.196;7.010;2023-07-30T08:54:44;4.65;;;2.03;;
15799;SDS011;8002;51.196;7.010;2023-07-30T08:57:13;6.18;;;2.45;;
15799;SDS011;8002;51.196;7.010;2023-07-30T08:59:42;6.70;;;2.58;;
15799;SDS011;8002;51.196;7.010;2023-07-30T09:02:10;9.77;;;2.35;;
15799;SDS011;8002;51.196;7.010;2023-07-30T09:04:41;6.70;;;2.58;;
15799;SDS011;8002;51.196;7.010;2023-07-30T09:07:09;7.45;;;2.38;;
15799;SDS011;8002;51.196;7.010;2023-07-30T09:09:37;7.53;;;2.75;;
15799;SDS011;8002;51.196;7.010;2023-07-30T09:12:05;7.75;;;2.70;;
15799;SDS011;8002;51.196;7.010;2023-07-30T09:14:38;9.57;;;2.72;;
15799;SDS011;8002;51.196;7.010;2023-07-30T09:17:05;8.77;;;3.15;;
15799;SDS011;8002;51.196;7.010;2023-07-30T09:19:34;8.32;;;2.88;;
15799;SDS011;8002;51.196;7.010;2023-07-30T09:22:05;6.82;;;2.42;;
15799;SDS011;8002;51.196;7.010;2023-07-30T09:24:31;6.43;;;2.58;;
15799;SDS011;8002;51.196;7.010;2023-07-30T09:26:57;5.95;;;2.25;;
15799;SDS011;8002;51.196;7.010;2023-07-30T09:29:27;4.63;;;2.30;;
15799;SDS011;8002;51.196;7.010;2023-07-30T09:31:53;7.22;;;2.60;;
15799;SDS011;8002;51.196;7.010;2023-07-30T09:34:20;7.63;;;2.53;;
15799;SDS011;8002;51.196;7.010;2023-07-30T09:36:47;6.22;;;2.30;;
15799;SDS011;8002;51.196;7.010;2023-07-30T09:39:15;4.80;;;2.08;;
15799;SDS011;8002;51.196;7.010;2023-07-30T09:41:42;5.28;;;2.28;;
15799;SDS011;8002;51.196;7.010;2023-07-30T09:44:08;4.47;;;1.95;;
15799;SDS011;8002;51.196;7.010;2023-07-30T09:46:38;4.55;;;2.00;;
15799;SDS011;8002;51.196;7.010;2023-07-30T09:49:19;8.38;;;2.17;;
15799;SDS011;8002;51.196;7.010;2023-07-30T09:51:48;3.08;;;1.83;;
15799;SDS011;8002;51.196;7.010;2023-07-30T09:54:15;5.50;;;1.77;;
15799;SDS011;8002;51.196;7.010;2023-07-30T09:56:42;4.50;;;1.40;;
15799;SDS011;8002;51.196;7.010;2023-07-30T09:59:13;5.30;;;2.28;;
15799;SDS011;8002;51.196;7.010;2023-07-30T10:01:42;5.35;;;2.13;;
15799;SDS011;8002;51.196;7.010;2023-07-30T10:04:09;6.38;;;2.20;;
15799;SDS011;8002;51.196;7.010;2023-07-30T10:06:36;3.20;;;1.80;;
15799;SDS011;8002;51.196;7.010;2023-07-30T10:09:03;4.53;;;2.03;;
15799;SDS011;8002;51.196;7.010;2023-07-30T10:11:31;3.92;;;2.13;;
15799;SDS011;8002;51.196;7.010;2023-07-30T10:13:58;2.78;;;1.48;;
15799;SDS011;8002;51.196;7.010;2023-07-30T10:16:25;3.42;;;1.77;;
15799;SDS011;8002;51.196;7.010;2023-07-30T10:18:55;4.68;;;2.25;;
15799;SDS011;8002;51.196;7.010;2023-07-30T10:21:23;5.50;;;1.75;;
15799;SDS011;8002;51.196;7.010;2023-07-30T10:23:50;5.75;;;1.85;;
15799;SDS011;8002;51.196;7.010;2023-07-30T10:26:25;5.82;;;2.03;;
15799;SDS011;8002;51.196;7.010;2023-07-30T10:28:55;4.10;;;1.85;;
15799;SDS011;8002;51.196;7.010;2023-07-30T10:31:37;2.97;;;1.52;;
15799;SDS011;8002;51.196;7.010;2023-07-30T10:34:06;3.10;;;1.33;;
15799;SDS011;8002;51.196;7.010;2023-07-30T10:36:38;2.28;;;1.52;;
15799;SDS011;8002;51.196;7.010;2023-07-30T10:39:13;4.03;;;1.90;;
15799;SDS011;8002;51.196;7.010;2023-07-30T10:41:40;4.03;;;1.40;;
15799;SDS011;8002;51.196;7.010;2023-07-30T10:44:09;4.03;;;1.90;;
15799;SDS011;8002;51.196;7.010;2023-07-30T10:46:43;4.50;;;1.70;;
15799;SDS011;8002;51.196;7.010;2023-07-30T10:49:09;6.43;;;1.80;;
15799;SDS011;8002;51.196;7.010;2023-07-30T10:51:37;4.38;;;1.55;;
15799;SDS011;8002;51.196;7.010;2023-07-30T10:54:05;6.05;;;1.60;;
15799;SDS011;8002;51.196;7.010;2023-07-30T10:56:32;4.55;;;1.90;;
15799;SDS011;8002;51.196;7.010;2023-07-30T10:59:02;3.90;;;1.50;;
15799;SDS011;8002;51.196;7.010;2023-07-30T11:01:30;4.57;;;1.80;;
15799;SDS011;8002;51.196;7.010;2023-07-30T11:03:57;6.53;;;1.80;;
15799;SDS011;8002;51.196;7.010;2023-07-30T11:06:23;2.97;;;1.92;;
15799;SDS011;8002;51.196;7.010;2023-07-30T11:08:50;3.25;;;1.60;;
15799;SDS011;8002;51.196;7.010;2023-07-30T11:11:18;4.25;;;1.65;;
15799;SDS011;8002;51.196;7.010;2023-07-30T11:13:45;3.88;;;1.77;;
15799;SDS011;8002;51.196;7.010;2023-07-30T11:16:12;3.58;;;2.05;;
15799;SDS011;8002;51.196;7.010;2023-07-30T11:18:41;4.53;;;2.30;;
15799;SDS011;8002;51.196;7.010;2023-07-30T11:21:10;4.68;;;2.00;;
15799;SDS011;8002;51.196;7.010;2023-07-30T11:23:36;4.57;;;1.60;;
15799;SDS011;8002;51.196;7.010;2023-07-30T11:26:04;2.97;;;1.60;;
15799;SDS011;8002;51.196;7.010;2023-07-30T11:28:31;3.97;;;1.70;;
15799;SDS011;8002;51.196;7.010;2023-07-30T11:30:58;6.10;;;1.70;;
15799;SDS011;8002;51.196;7.010;2023-07-30T11:33:25;4.45;;;1.88;;
15799;SDS011;8002;51.196;7.010;2023-07-30T11:35:53;4.75;;;1.60;;
15799;SDS011;8002;51.196;7.010;2023-07-30T11:38:20;3.53;;;1.55;;
15799;SDS011;8002;51.196;7.010;2023-07-30T11:40:47;3.22;;;1.75;;
15799;SDS011;8002;51.196;7.010;2023-07-30T11:43:13;3.38;;;1.58;;
15799;SDS011;8002;51.196;7.010;2023-07-30T11:45:40;2.67;;;1.08;;
15799;SDS011;8002;51.196;7.010;2023-07-30T11:48:06;3.70;;;1.48;;
15799;SDS011;8002;51.196;7.010;2023-07-30T11:53:17;4.72;;;1.30;;
15799;SDS011;8002;51.196;7.010;2023-07-30T11:55:44;6.05;;;2.13;;
15799;SDS011;8002;51.196;7.010;2023-07-30T11:58:11;2.90;;;1.63;;
15799;SDS011;8002;51.196;7.010;2023-07-30T12:00:37;2.35;;;1.33;;
15799;SDS011;8002;51.196;7.010;2023-07-30T12:03:05;3.78;;;1.65;;
15799;SDS011;8002;51.196;7.010;2023-07-30T12:05:32;2.85;;;1.33;;
15799;SDS011;8002;51.196;7.010;2023-07-30T12:07:58;4.65;;;1.55;;
15799;SDS011;8002;51.196;7.010;2023-07-30T12:10:37;6.93;;;1.83;;
15799;SDS011;8002;51.196;7.010;2023-07-30T12:13:10;5.53;;;2.30;;
15799;SDS011;8002;51.196;7.010;2023-07-30T12:15:37;3.72;;;1.55;;
15799;SDS011;8002;51.196;7.010;2023-07-30T12:18:03;3.17;;;1.45;;
15799;SDS011;8002;51.196;7.010;2023-07-30T12:20:29;3.17;;;0.90;;
15799;SDS011;8002;51.196;7.010;2023-07-30T12:22:55;1.95;;;1.15;;
15799;SDS011;8002;51.196;7.010;2023-07-30T12:25:22;4.90;;;1.35;;
15799;SDS011;8002;51.196;7.010;2023-07-30T12:27:50;3.78;;;1.80;;
15799;SDS011;8002;51.196;7.010;2023-07-30T12:30:16;2.55;;;1.33;;
15799;SDS011;8002;51.196;7.010;2023-07-30T12:32:43;1.42;;;1.00;;
15799;SDS011;8002;51.196;7.010;2023-07-30T12:35:09;3.20;;;1.35;;
15799;SDS011;8002;51.196;7.010;2023-07-30T12:37:35;2.53;;;1.15;;
15799;SDS011;8002;51.196;7.010;2023-07-30T12:40:02;2.83;;;1.58;;
15799;SDS011;8002;51.196;7.010;2023-07-30T12:42:29;3.45;;;1.40;;
15799;SDS011;8002;51.196;7.010;2023-07-30T12:44:57;2.28;;;1.90;;
15799;SDS011;8002;51.196;7.010;2023-07-30T12:47:23;2.08;;;1.00;;
15799;SDS011;8002;51.196;7.010;2023-07-30T12:49:50;2.60;;;0.93;;
15799;SDS011;8002;51.196;7.010;2023-07-30T12:52:16;3.15;;;0.90;;
15799;SDS011;8002;51.196;7.010;2023-07-30T12:54:42;1.98;;;0.95;;
15799;SDS011;8002;51.196;7.010;2023-07-30T12:57:09;2.25;;;0.98;;
15799;SDS011;8002;51.196;7.010;2023-07-30T12:59:36;1.40;;;0.70;;
15799;SDS011;8002;51.196;7.010;2023-07-30T13:02:04;1.40;;;0.88;;
15799;SDS011;8002;51.196;7.010;2023-07-30T13:04:30;2.92;;;1.30;;
15799;SDS011;8002;51.196;7.010;2023-07-30T13:06:57;3.45;;;1.17;;
15799;SDS011;8002;51.196;7.010;2023-07-30T13:09:23;5.65;;;1.25;;
15799;SDS011;8002;51.196;7.010;2023-07-30T13:11:49;2.75;;;1.42;;
15799;SDS011;8002;51.196;7.010;2023-07-30T13:14:15;2.53;;;1.10;;
15799;SDS011;8002;51.196;7.010;2023-07-30T13:16:42;3.05;;;1.50;;
15799;SDS011;8002;51.196;7.010;2023-07-30T13:19:09;2.38;;;1.30;;
15799;SDS011;8002;51.196;7.010;2023-07-30T13:21:36;2.60;;;1.05;;
15799;SDS011;8002;51.196;7.010;2023-07-30T13:24:03;2.33;;;1.30;;
15799;SDS011;8002;51.196;7.010;2023-07-30T13:26:30;2.75;;;1.40;;
15799;SDS011;8002;51.196;7.010;2023-07-30T13:28:56;3.55;;;1.60;;
15799;SDS011;8002;51.196;7.010;2023-07-30T13:31:22;2.92;;;1.65;;
15799;SDS011;8002;51.196;7.010;2023-07-30T13:33:49;2.90;;;1.48;;
15799;SDS011;8002;51.196;7.010;2023-07-30T13:36:17;3.72;;;1.60;;
15799;SDS011;8002;51.196;7.010;2023-07-30T13:38:44;3.35;;;1.25;;
15799;SDS011;8002;51.196;7.010;2023-07-30T13:41:10;1.58;;;1.25;;
15799;SDS011;8002;51.196;7.010;2023-07-30T13:43:36;2.97;;;1.25;;
15799;SDS011;8002;51.196;7.010;2023-07-30T13:46:03;3.53;;;1.35;;
15799;SDS011;8002;51.196;7.010;2023-07-30T13:48:29;3.50;;;1.40;;
15799;SDS011;8002;51.196;7.010;2023-07-30T13:50:55;3.17;;;1.65;;
15799;SDS011;8002;51.196;7.010;2023-07-30T13:53:23;3.05;;;1.40;;
15799;SDS011;8002;51.196;7.010;2023-07-30T13:55:50;2.72;;;1.35;;
15799;SDS011;8002;51.196;7.010;2023-07-30T13:58:16;2.38;;;1.42;;
15799;SDS011;8002;51.196;7.010;2023-07-30T14:00:42;2.50;;;1.38;;
15799;SDS011;8002;51.196;7.010;2023-07-30T14:03:09;3.53;;;1.30;;
15799;SDS011;8002;51.196;7.010;2023-07-30T14:05:36;4.13;;;1.40;;
15799;SDS011;8002;51.196;7.010;2023-07-30T14:08:02;3.00;;;1.38;;
15799;SDS011;8002;51.196;7.010;2023-07-30T14:10:30;2.08;;;1.45;;
15799;SDS011;8002;51.196;7.010;2023-07-30T14:12:57;2.35;;;1.17;;
15799;SDS011;8002;51.196;7.010;2023-07-30T14:15:23;3.45;;;1.55;;
15799;SDS011;8002;51.196;7.010;2023-07-30T14:17:50;5.47;;;1.63;;
15799;SDS011;8002;51.196;7.010;2023-07-30T14:20:17;4.95;;;1.73;;
15799;SDS011;8002;51.196;7.010;2023-07-30T14:22:43;5.03;;;1.65;;
15799;SDS011;8002;51.196;7.010;2023-07-30T14:25:09;3.28;;;1.40;;
15799;SDS011;8002;51.196;7.010;2023-07-30T14:27:37;3.55;;;1.30;;
15799;SDS011;8002;51.196;7.010;2023-07-30T14:30:04;3.72;;;1.30;;
15799;SDS011;8002;51.196;7.010;2023-07-30T14:32:30;3.15;;;1.83;;
15799;SDS011;8002;51.196;7.010;2023-07-30T14:34:57;5.22;;;1.80;;
15799;SDS011;8002;51.196;7.010;2023-07-30T14:37:23;4.97;;;1.40;;
15799;SDS011;8002;51.196;7.010;2023-07-30T14:39:49;4.20;;;1.98;;
15799;SDS011;8002;51.196;7.010;2023-07-30T14:42:16;7.55;;;1.60;;
15799;SDS011;8002;51.196;7.010;2023-07-30T14:44:43;5.18;;;1.58;;
15799;SDS011;8002;51.196;7.010;2023-07-30T14:47:10;4.72;;;1.30;;
15799;SDS011;8002;51.196;7.010;2023-07-30T14:49:37;2.47;;;1.45;;
15799;SDS011;8002;51.196;7.010;2023-07-30T14:52:03;4.43;;;1.63;;
15799;SDS011;8002;51.196;7.010;2023-07-30T14:54:30;2.72;;;1.20;;
15799;SDS011;8002;51.196;7.010;2023-07-30T14:56:56;4.97;;;1.23;;
15799;SDS011;8002;51.196;7.010;2023-07-30T14:59:22;2.33;;;1.45;;
15799;SDS011;8002;51.196;7.010;2023-07-30T15:01:51;1.65;;;0.93;;